Time;durP1;ratioP1;P1;durP2;ratioP2;P2;SDS_P1;SDS_P2;PMS_P1;PMS_P2;Temp;Humidity;BMP_temperature;BMP_pressure;BME280_temperature;BME280_humidity;BME280_pressure;Samples;Min_cycle;Max_cycle;Signal;HPM_P1;HPM_P2
2022/01/06 00:02:15;;;;;;;11.95;2.60;;;;;;;4.85;80.26;101490.00;5034526;28;20029;-68
2022/01/06 00:04:41;;;;;;;17.02;2.88;;;;;;;4.87;80.17;101493.56;5034614;28;20084;-68
2022/01/06 00:07:07;;;;;;;15.77;3.00;;;;;;;4.80;80.16;101502.91;5034722;28;20474;-68
2022/01/06 00:09:32;;;;;;;11.77;2.60;;;;;;;4.74;80.81;101506.13;5034707;28;20040;-67
2022/01/06 00:11:58;;;;;;;17.10;2.80;;;;;;;4.73;81.40;101501.72;5034592;28;20462;-67
2022/01/06 00:14:39;;;;;;;11.60;2.53;;;;;;;4.78;81.54;101500.19;5034690;28;20494;-67
2022/01/06 00:18:11;;;;;;;13.90;2.63;;;;;;;4.80;81.29;101499.34;5034609;28;20063;-67
2022/01/06 00:25:17;;;;;;;17.75;2.80;;;;;;;4.75;80.58;101502.69;5034231;28;20032;-67
2022/01/06 00:27:43;;;;;;;14.88;3.05;;;;;;;4.74;80.34;101506.13;5034223;28;20030;-67
2022/01/06 00:30:09;;;;;;;13.07;2.95;;;;;;;4.76;81.86;101509.72;5034181;28;20388;-69
2022/01/06 00:32:35;;;;;;;12.93;2.92;;;;;;;4.71;79.88;101512.94;5033957;28;20117;-68
2022/01/06 00:35:00;;;;;;;12.27;2.92;;;;;;;4.70;81.08;101513.75;5016260;28;20053;-67
2022/01/06 00:37:26;;;;;;;14.70;3.00;;;;;;;4.61;80.42;101515.97;5034002;28;20026;-68
2022/01/06 00:39:52;;;;;;;19.55;3.25;;;;;;;4.58;81.09;101514.09;5016212;28;20036;-68
2022/01/06 00:42:17;;;;;;;19.27;3.45;;;;;;;4.52;80.63;101522.56;5034099;28;20017;-68
2022/01/06 00:44:43;;;;;;;18.52;3.58;;;;;;;4.48;80.58;101523.25;5033866;28;20423;-68
2022/01/06 00:47:08;;;;;;;13.45;2.70;;;;;;;4.48;81.58;101524.97;5033855;28;20028;-67
2022/01/06 00:49:33;;;;;;;14.20;2.80;;;;;;;4.49;81.54;101530.28;5033715;28;20022;-68
2022/01/06 00:51:59;;;;;;;19.92;3.10;;;;;;;4.52;80.59;101529.53;5033695;28;20084;-67
2022/01/06 00:54:24;;;;;;;14.52;3.10;;;;;;;4.56;81.04;101523.63;5033660;28;20029;-68
2022/01/06 00:56:50;;;;;;;13.23;2.97;;;;;;;4.57;80.70;101530.63;5033456;28;20119;-67
2022/01/06 00:59:15;;;;;;;15.50;3.20;;;;;;;4.55;80.82;101529.69;5033572;28;20505;-68
2022/01/06 01:01:40;;;;;;;13.82;3.20;;;;;;;4.53;80.15;101526.06;5032703;28;20493;-69
2022/01/06 01:04:06;;;;;;;15.10;3.20;;;;;;;4.49;81.06;101518.91;5033420;28;20026;-67
2022/01/06 01:06:31;;;;;;;13.85;3.03;;;;;;;4.52;80.76;101533.03;5033499;28;20045;-67
2022/01/06 01:08:57;;;;;;;19.58;3.22;;;;;;;4.50;79.77;101526.84;5033408;28;20053;-67
2022/01/06 01:11:22;;;;;;;15.15;3.30;;;;;;;4.47;81.02;101531.94;5033421;28;20037;-67
2022/01/06 01:13:56;;;;;;;14.50;3.60;;;;;;;4.47;80.02;101536.28;5033502;28;20033;-66
2022/01/06 01:16:30;;;;;;;17.95;3.35;;;;;;;4.42;81.04;101532.56;5033388;28;20482;-67
2022/01/06 01:18:57;;;;;;;14.68;3.40;;;;;;;4.39;80.23;101522.84;5033038;28;20100;-67
2022/01/06 01:21:27;;;;;;;14.18;2.78;;;;;;;4.45;80.70;101519.59;5033238;28;20072;-67
2022/01/06 01:23:54;;;;;;;13.93;3.45;;;;;;;4.45;80.17;101524.81;5033440;28;20051;-68
2022/01/06 01:26:20;;;;;;;16.25;2.90;;;;;;;4.41;80.38;101534.28;5033297;28;20022;-67
2022/01/06 01:28:46;;;;;;;13.93;2.70;;;;;;;4.41;80.48;101534.28;5033152;28;20025;-67
2022/01/06 01:33:46;;;;;;;15.90;2.97;;;;;;;4.41;79.72;101530.75;5033303;28;20045;-67
2022/01/06 01:36:12;;;;;;;16.23;3.17;;;;;;;4.40;79.41;101535.09;5032977;28;20025;-67
2022/01/06 01:38:38;;;;;;;18.35;2.97;;;;;;;4.41;79.96;101541.22;5033176;28;20025;-67
2022/01/06 01:41:04;;;;;;;13.05;2.70;;;;;;;4.39;79.72;101535.03;5033077;28;20029;-67
2022/01/06 01:43:30;;;;;;;11.43;2.60;;;;;;;4.33;80.81;101539.97;5015317;28;20479;-67
2022/01/06 01:45:56;;;;;;;17.33;3.35;;;;;;;4.28;79.72;101547.59;5033021;28;20028;-67
2022/01/06 01:48:28;;;;;;;11.93;2.88;;;;;;;4.23;80.96;101562.16;5032794;28;20477;-67
2022/01/06 01:50:54;;;;;;;16.10;3.00;;;;;;;4.15;80.17;101569.66;5032794;28;20068;-67
2022/01/06 01:53:19;;;;;;;16.48;3.40;;;;;;;4.10;80.83;101568.53;5032931;28;20061;-67
2022/01/06 01:55:44;;;;;;;15.60;2.95;;;;;;;4.06;80.10;101579.66;5032833;28;20025;-67
2022/01/06 01:58:10;;;;;;;20.90;3.53;;;;;;;4.02;80.86;101585.56;5015265;28;20029;-66
2022/01/06 02:00:36;;;;;;;13.80;3.25;;;;;;;4.07;81.33;101596.25;5032871;28;20502;-66
2022/01/06 02:03:01;;;;;;;9.05;2.80;;;;;;;3.98;80.64;101589.78;5014929;28;20017;-67
2022/01/06 02:05:28;;;;;;;16.02;2.80;;;;;;;4.06;81.50;101592.75;5032671;28;20437;-67
2022/01/06 02:08:00;;;;;;;11.23;2.90;;;;;;;4.05;81.47;101597.91;5033167;28;20417;-67
2022/01/06 02:10:27;;;;;;;14.63;3.00;;;;;;;4.03;81.65;101592.63;5032981;28;20386;-67
2022/01/06 02:12:55;;;;;;;16.23;3.00;;;;;;;3.99;80.82;101598.50;5035336;28;20427;-67
2022/01/06 02:15:20;;;;;;;16.58;3.80;;;;;;;3.95;81.04;101599.19;5036696;28;20529;-67
2022/01/06 02:17:47;;;;;;;14.68;3.35;;;;;;;3.88;80.50;101602.31;5036466;28;20026;-67
2022/01/06 02:20:15;;;;;;;15.32;2.83;;;;;;;3.83;81.63;101599.47;5036530;28;20112;-67
2022/01/06 02:22:41;;;;;;;15.43;3.42;;;;;;;3.87;80.78;101600.50;5036538;28;20505;-67
2022/01/06 02:25:15;;;;;;;13.10;2.85;;;;;;;3.87;80.36;101597.91;5036485;28;20040;-67
2022/01/06 02:27:42;;;;;;;15.02;3.83;;;;;;;3.87;80.79;101608.34;5036502;28;20029;-67
2022/01/06 02:30:08;;;;;;;16.65;3.10;;;;;;;3.84;80.31;101600.34;5036352;28;20037;-67
2022/01/06 02:32:34;;;;;;;11.77;2.78;;;;;;;3.83;80.64;101607.31;5036197;28;20037;-66
2022/01/06 02:35:05;;;;;;;13.20;2.67;;;;;;;3.82;81.29;101607.25;5036365;28;20029;-67
2022/01/06 02:37:30;;;;;;;13.95;2.67;;;;;;;3.87;81.78;101606.63;5036294;28;20104;-67
2022/01/06 02:39:55;;;;;;;13.07;3.08;;;;;;;3.88;80.70;101603.19;5036288;28;20061;-66
2022/01/06 02:42:21;;;;;;;10.57;3.03;;;;;;;3.87;81.42;101588.34;5036170;28;20033;-67
2022/01/06 02:44:46;;;;;;;16.85;3.05;;;;;;;3.96;80.54;101607.09;5036177;28;20467;-67
2022/01/06 02:47:11;;;;;;;13.45;2.88;;;;;;;3.96;80.67;101601.84;5036117;28;20029;-67
2022/01/06 02:49:37;;;;;;;14.98;3.08;;;;;;;3.93;80.39;101609.53;5018549;28;20029;-66
2022/01/06 02:52:02;;;;;;;17.33;2.92;;;;;;;3.87;79.85;101596.19;5035957;28;20487;-67
2022/01/06 02:54:28;;;;;;;14.52;2.90;;;;;;;3.89;80.04;101596.25;5036022;28;20105;-66
2022/01/06 02:56:53;;;;;;;15.10;2.90;;;;;;;3.86;80.65;101594.38;5035775;28;20084;-67
2022/01/06 02:59:19;;;;;;;11.70;2.92;;;;;;;3.82;80.17;101595.06;5035947;28;20375;-67
2022/01/06 03:01:48;;;;;;;17.10;3.58;;;;;;;3.84;81.01;101602.97;5035651;28;20048;-67
2022/01/06 03:04:13;;;;;;;11.35;2.92;;;;;;;3.83;79.60;101599.47;5035698;28;20104;-67
2022/01/06 03:06:40;;;;;;;12.68;2.90;;;;;;;3.84;80.65;101608.19;5035772;28;20064;-67
2022/01/06 03:09:06;;;;;;;18.58;3.50;;;;;;;3.82;79.76;101599.41;5035738;28;20037;-67
2022/01/06 03:11:33;;;;;;;12.10;2.95;;;;;;;3.76;80.07;101608.69;5035624;28;20036;-67
2022/01/06 03:13:59;;;;;;;14.73;3.10;;;;;;;3.74;80.44;101606.84;5035579;28;20107;-67
2022/01/06 03:16:25;;;;;;;14.93;2.85;;;;;;;3.71;79.98;101617.13;5035348;28;20437;-66
2022/01/06 03:18:50;;;;;;;16.45;2.72;;;;;;;3.65;80.34;101616.84;5035205;28;20116;-67
2022/01/06 03:21:16;;;;;;;15.57;3.33;;;;;;;3.64;80.66;101625.47;5035402;28;20101;-66
2022/01/06 03:23:41;;;;;;;16.63;3.30;;;;;;;3.70;80.90;101625.81;5034570;28;20386;-67
2022/01/06 03:26:07;;;;;;;14.30;3.25;;;;;;;3.71;80.15;101628.47;5035368;28;20068;-67
2022/01/06 03:28:33;;;;;;;11.85;2.70;;;;;;;3.78;81.25;101634.94;5017264;28;20021;-67
2022/01/06 03:30:58;;;;;;;11.40;3.10;;;;;;;3.75;80.27;101630.44;5017085;28;20022;-67
2022/01/06 03:33:24;;;;;;;13.38;3.10;;;;;;;3.73;79.71;101639.94;5035157;28;20025;-67
2022/01/06 03:35:49;;;;;;;17.58;3.28;;;;;;;3.69;79.36;101627.53;5017381;28;20029;-66
2022/01/06 03:38:15;;;;;;;13.65;2.67;;;;;;;3.69;80.26;101637.09;5035144;28;20491;-67
2022/01/06 03:40:40;;;;;;;17.35;3.33;;;;;;;3.68;80.62;101641.41;5035150;28;20036;-67
2022/01/06 03:43:07;;;;;;;12.05;2.95;;;;;;;3.60;80.37;101641.81;5035091;28;20036;-66
2022/01/06 03:45:33;;;;;;;13.85;4.38;;;;;;;3.57;80.59;101641.69;5034963;28;20475;-67
2022/01/06 03:47:59;;;;;;;11.43;2.88;;;;;;;3.56;81.22;101645.13;5034769;28;20108;-67
2022/01/06 03:50:24;;;;;;;17.15;3.15;;;;;;;3.48;80.91;101637.75;5034993;28;20053;-67
2022/01/06 03:52:49;;;;;;;15.68;3.10;;;;;;;3.46;81.11;101636.78;5035075;28;20470;-67
2022/01/06 03:55:17;;;;;;;14.95;3.15;;;;;;;3.48;81.30;101635.16;5034822;28;20025;-67
2022/01/06 03:57:43;;;;;;;16.63;2.88;;;;;;;3.45;81.30;101632.38;5034623;28;20046;-66
2022/01/06 04:00:12;;;;;;;10.95;2.50;;;;;;;3.54;81.63;101644.13;5034709;28;20473;-67
2022/01/06 04:02:38;;;;;;;20.27;3.28;;;;;;;3.56;81.28;101639.88;5034497;28;20029;-66
2022/01/06 04:05:05;;;;;;;11.02;2.70;;;;;;;3.63;80.53;101634.13;5034460;28;20045;-67
2022/01/06 04:07:32;;;;;;;11.60;2.30;;;;;;;3.64;80.44;101630.69;5034613;28;20025;-67
2022/01/06 04:09:58;;;;;;;12.85;2.47;;;;;;;3.67;80.76;101639.59;5034643;28;20376;-67
2022/01/06 04:12:23;;;;;;;16.52;3.08;;;;;;;3.72;80.39;101625.03;5034469;28;20532;-66
2022/01/06 04:14:48;;;;;;;14.77;2.85;;;;;;;3.71;80.28;101635.44;5034455;28;20048;-67
2022/01/06 04:17:14;;;;;;;10.30;2.70;;;;;;;3.65;80.77;101628.19;5034266;28;20104;-67
2022/01/06 04:19:39;;;;;;;12.80;2.70;;;;;;;3.65;80.58;101646.47;5034237;28;20076;-67
2022/01/06 04:22:05;;;;;;;15.50;2.67;;;;;;;3.62;80.65;101642.81;5034387;28;20483;-67
2022/01/06 04:24:31;;;;;;;9.60;2.55;;;;;;;3.64;81.27;101656.84;5034451;28;20371;-67
2022/01/06 04:26:57;;;;;;;11.27;2.80;;;;;;;3.62;80.04;101662.00;5034295;28;20387;-68
2022/01/06 04:29:22;;;;;;;12.23;2.42;;;;;;;3.67;79.88;101668.34;5034269;28;20025;-67
2022/01/06 04:31:47;;;;;;;12.15;2.65;;;;;;;3.65;79.83;101656.94;5033987;28;20463;-67
2022/01/06 04:34:13;;;;;;;14.10;2.78;;;;;;;3.66;79.73;101668.28;5016350;28;20114;-68
2022/01/06 04:36:41;;;;;;;12.77;2.75;;;;;;;3.62;79.88;101663.72;5033894;28;20097;-67
2022/01/06 04:39:06;;;;;;;10.13;2.40;;;;;;;3.63;80.05;101666.38;5033992;28;20021;-67
2022/01/06 04:41:32;;;;;;;12.98;2.50;;;;;;;3.58;79.75;101656.53;5033941;28;20378;-68
2022/01/06 04:43:57;;;;;;;13.18;3.17;;;;;;;3.63;80.04;101675.94;5033924;28;20032;-67
2022/01/06 04:46:23;;;;;;;13.95;2.70;;;;;;;3.67;81.22;101678.81;5033890;28;20025;-68
2022/01/06 04:48:49;;;;;;;15.40;2.95;;;;;;;3.69;80.62;101678.91;5033807;28;20036;-67
2022/01/06 04:51:15;;;;;;;14.45;3.25;;;;;;;3.67;80.03;101677.91;5033623;28;20029;-67
2022/01/06 04:53:40;;;;;;;16.08;3.00;;;;;;;3.60;79.64;101681.94;5034080;28;20030;-67
2022/01/06 04:56:05;;;;;;;15.18;3.08;;;;;;;3.58;80.49;101687.88;5033528;28;20038;-68
2022/01/06 04:58:32;;;;;;;16.70;2.88;;;;;;;3.58;79.53;101694.00;5033711;28;20055;-67
2022/01/06 05:00:58;;;;;;;13.65;2.80;;;;;;;3.51;79.98;101677.13;5033600;28;20038;-67
2022/01/06 05:03:23;;;;;;;16.33;2.97;;;;;;;3.47;79.87;101682.13;5033615;28;20040;-67
2022/01/06 05:05:48;;;;;;;21.75;4.05;;;;;;;3.43;79.99;101691.50;5033362;28;20022;-67
2022/01/06 05:08:14;;;;;;;17.10;3.17;;;;;;;3.30;80.14;101672.44;5033566;28;20463;-67
2022/01/06 05:10:39;;;;;;;20.73;2.83;;;;;;;3.36;80.33;101699.81;5033458;28;20028;-68
2022/01/06 05:13:04;;;;;;;16.13;2.95;;;;;;;3.30;80.31;101701.19;5015728;28;20025;-67
2022/01/06 05:15:30;;;;;;;14.05;3.10;;;;;;;3.19;80.45;101698.00;5033474;28;20056;-68
2022/01/06 05:17:55;;;;;;;11.73;3.00;;;;;;;3.11;80.77;101707.13;5033300;28;20029;-67
2022/01/06 05:20:25;;;;;;;15.27;3.20;;;;;;;3.01;81.53;101710.97;5033156;28;20092;-68
2022/01/06 05:22:51;;;;;;;12.98;2.97;;;;;;;2.94;81.73;101706.22;5033300;28;20033;-67
2022/01/06 05:25:20;;;;;;;14.95;2.85;;;;;;;2.87;81.56;101706.66;5033270;28;20028;-67
2022/01/06 05:27:46;;;;;;;9.80;2.70;;;;;;;2.82;81.96;101710.75;5033219;28;20482;-68
2022/01/06 05:30:11;;;;;;;21.17;3.33;;;;;;;2.82;81.86;101719.47;5033129;28;20021;-68
2022/01/06 05:32:37;;;;;;;19.77;3.33;;;;;;;2.79;81.87;101723.66;5033077;28;20120;-68
2022/01/06 05:35:03;;;;;;;13.15;3.13;;;;;;;2.68;81.76;101721.31;5032980;28;20030;-68
2022/01/06 05:37:29;;;;;;;13.85;3.28;;;;;;;2.58;82.26;101724.22;5033055;28;20049;-68
2022/01/06 05:39:54;;;;;;;13.10;3.00;;;;;;;2.53;82.60;101732.56;5033143;28;20485;-68
2022/01/06 05:42:20;;;;;;;14.18;2.78;;;;;;;2.53;83.10;101729.97;5033096;28;20087;-69
2022/01/06 05:44:46;;;;;;;16.58;3.05;;;;;;;2.56;82.77;101727.53;5015160;28;20081;-69
2022/01/06 05:47:11;;;;;;;15.48;3.15;;;;;;;2.62;83.05;101738.34;5032471;28;20068;-69
2022/01/06 05:49:36;;;;;;;12.18;3.08;;;;;;;2.66;83.05;101742.94;5032939;28;20025;-68
2022/01/06 05:52:02;;;;;;;13.88;2.90;;;;;;;2.69;82.79;101736.16;5032998;28;20032;-68
2022/01/06 05:54:28;;;;;;;18.00;3.03;;;;;;;2.76;82.16;101750.47;5032778;28;20032;-68
2022/01/06 05:56:53;;;;;;;15.95;3.15;;;;;;;2.80;82.50;101747.22;5022907;28;20045;-68
2022/01/06 05:59:18;;;;;;;16.33;3.17;;;;;;;2.80;82.24;101749.81;5032985;28;20025;-68
2022/01/06 06:01:46;;;;;;;16.85;2.97;;;;;;;2.78;81.80;101746.22;5033140;28;20040;-69
2022/01/06 06:04:11;;;;;;;14.20;2.70;;;;;;;2.70;82.37;101743.19;5032977;28;20026;-69
2022/01/06 06:06:36;;;;;;;13.32;2.70;;;;;;;2.66;82.32;101745.53;5032706;28;20026;-68
2022/01/06 06:09:02;;;;;;;11.35;2.67;;;;;;;2.69;82.43;101757.03;5032834;28;20026;-68
2022/01/06 06:11:27;;;;;;;9.45;2.38;;;;;;;2.66;82.54;101761.19;5032874;28;20025;-68
2022/01/06 06:13:53;;;;;;;8.82;2.55;;;;;;;2.62;82.65;101767.06;5032816;28;20026;-69
2022/01/06 06:16:18;;;;;;;18.13;3.25;;;;;;;2.58;82.51;101767.69;5031461;28;20029;-69
2022/01/06 06:18:43;;;;;;;16.05;3.15;;;;;;;2.56;82.84;101762.34;5031526;28;20025;-69
2022/01/06 06:21:09;;;;;;;14.40;2.80;;;;;;;2.52;82.87;101757.78;5032621;28;20025;-69
2022/01/06 06:23:34;;;;;;;8.98;2.40;;;;;;;2.69;83.30;101775.28;5032654;28;20364;-69
2022/01/06 06:26:00;;;;;;;13.40;2.80;;;;;;;2.77;82.50;101773.13;5032642;28;20044;-69
2022/01/06 06:28:26;;;;;;;13.02;2.70;;;;;;;2.77;82.51;101783.56;5032845;28;20433;-69
2022/01/06 06:30:51;;;;;;;10.00;2.70;;;;;;;2.75;82.21;101780.88;5032670;28;20021;-69
2022/01/06 06:33:17;;;;;;;12.05;2.90;;;;;;;2.70;82.12;101771.00;5032606;28;20402;-69
2022/01/06 06:35:42;;;;;;;15.70;3.33;;;;;;;2.69;82.50;101784.84;5032570;28;20463;-70
2022/01/06 06:38:07;;;;;;;11.75;2.72;;;;;;;2.73;82.79;101781.59;5032625;28;20084;-70
2022/01/06 06:40:36;;;;;;;12.90;3.20;;;;;;;2.70;82.32;101794.50;5032572;28;20079;-70
2022/01/06 06:43:01;;;;;;;15.02;2.75;;;;;;;2.65;82.41;101785.47;5032584;28;20029;-69
2022/01/06 06:45:27;;;;;;;13.20;2.97;;;;;;;2.63;82.50;101790.59;5032580;28;20420;-69
2022/01/06 06:47:52;;;;;;;13.95;2.70;;;;;;;2.65;82.58;101788.06;5032455;28;20508;-68
2022/01/06 06:50:21;;;;;;;10.55;2.85;;;;;;;2.60;82.18;101785.19;5032653;28;20036;-68
2022/01/06 06:52:47;;;;;;;13.88;2.72;;;;;;;2.62;82.64;101796.66;5030967;28;20119;-69
2022/01/06 06:55:14;;;;;;;14.18;3.03;;;;;;;2.58;82.28;101805.09;5032624;28;20032;-69
2022/01/06 06:57:39;;;;;;;12.38;3.13;;;;;;;2.51;82.76;101811.66;5032497;28;20049;-69
2022/01/06 07:00:07;;;;;;;15.07;3.25;;;;;;;2.41;82.41;101811.94;5034882;28;20048;-69
2022/01/06 07:02:32;;;;;;;11.70;2.88;;;;;;;2.33;82.85;101818.41;5035764;28;20482;-69
2022/01/06 07:04:59;;;;;;;16.77;3.05;;;;;;;2.27;82.94;101818.06;5035779;28;20032;-69
2022/01/06 07:07:24;;;;;;;9.45;2.88;;;;;;;2.28;83.11;101817.25;5035615;28;20470;-69
2022/01/06 07:09:50;;;;;;;10.50;2.58;;;;;;;2.31;83.38;101811.28;5035767;28;20055;-70
2022/01/06 07:12:15;;;;;;;10.63;2.83;;;;;;;2.30;83.02;101809.50;5035907;28;20520;-68
2022/01/06 07:14:41;;;;;;;13.48;3.22;;;;;;;2.35;82.66;101818.47;5035914;28;20040;-69
2022/01/06 07:17:06;;;;;;;17.70;3.35;;;;;;;2.35;82.77;101826.31;5035789;28;20030;-69
2022/01/06 07:19:32;;;;;;;15.95;3.30;;;;;;;2.35;83.28;101831.53;5035470;28;20466;-69
2022/01/06 07:21:57;;;;;;;14.65;3.28;;;;;;;2.39;82.73;101836.13;5035581;28;20075;-69
2022/01/06 07:24:22;;;;;;;14.32;3.10;;;;;;;2.43;82.82;101841.59;5035281;28;20040;-69
2022/01/06 07:26:48;;;;;;;11.32;3.00;;;;;;;2.45;82.36;101844.31;5035576;28;20021;-68
2022/01/06 07:29:13;;;;;;;12.63;3.10;;;;;;;2.44;82.54;101845.09;5035554;28;20440;-70
2022/01/06 07:31:39;;;;;;;12.25;3.15;;;;;;;2.48;82.80;101847.09;5035253;28;20036;-69
2022/01/06 07:34:04;;;;;;;11.65;2.83;;;;;;;2.53;82.24;101844.75;5035275;28;20095;-69
2022/01/06 07:36:29;;;;;;;14.98;2.70;;;;;;;2.59;81.75;101842.53;5034764;28;20029;-69
2022/01/06 07:38:55;;;;;;;10.63;3.45;;;;;;;2.61;81.68;101854.88;5034455;28;20075;-68
2022/01/06 07:41:20;;;;;;;11.77;3.20;;;;;;;2.65;81.71;101853.31;5034736;28;20029;-69
2022/01/06 07:43:46;;;;;;;9.85;3.15;;;;;;;2.69;81.71;101850.97;5034582;28;20072;-69
2022/01/06 07:46:11;;;;;;;11.68;3.33;;;;;;;2.72;81.04;101850.25;5034569;28;20475;-69
2022/01/06 07:48:48;;;;;;;11.77;2.70;;;;;;;2.66;81.08;101852.53;5034362;28;20036;-69
2022/01/06 07:51:14;;;;;;;15.25;3.20;;;;;;;2.63;80.61;101857.56;5034217;28;20417;-69
2022/01/06 07:53:40;;;;;;;14.68;3.10;;;;;;;2.53;81.05;101848.28;5034269;28;20037;-68
2022/01/06 07:56:05;;;;;;;13.00;3.20;;;;;;;2.43;81.66;101852.03;5034190;28;20049;-70
2022/01/06 07:58:30;;;;;;;13.50;3.40;;;;;;;2.35;82.45;101849.78;5034205;28;20064;-70
2022/01/06 08:00:56;;;;;;;11.05;3.50;;;;;;;2.33;82.38;101852.31;5034181;28;20471;-69
2022/01/06 08:03:21;;;;;;;10.10;2.92;;;;;;;2.28;82.11;101858.97;5034177;28;20026;-69
2022/01/06 08:05:47;;;;;;;15.95;3.03;;;;;;;2.26;82.38;101865.78;5033918;28;20025;-69
2022/01/06 08:08:12;;;;;;;15.85;3.50;;;;;;;2.21;82.43;101856.78;5034122;28;20049;-70
2022/01/06 08:10:37;;;;;;;14.98;2.88;;;;;;;2.20;82.08;101855.88;5033283;28;20026;-70
2022/01/06 08:13:02;;;;;;;12.07;3.10;;;;;;;2.29;82.79;101859.84;5033978;28;20475;-69
2022/01/06 08:15:28;;;;;;;13.68;3.17;;;;;;;2.35;82.97;101862.81;5033896;28;20025;-69
2022/01/06 08:17:53;;;;;;;14.13;3.60;;;;;;;2.46;83.01;101866.97;5033925;28;20026;-68
2022/01/06 08:20:19;;;;;;;17.55;3.53;;;;;;;2.60;83.16;101870.41;5016178;28;20489;-69
2022/01/06 08:22:44;;;;;;;10.70;3.40;;;;;;;2.74;82.00;101875.66;5033699;28;20519;-69
2022/01/06 08:25:10;;;;;;;13.35;2.90;;;;;;;2.87;82.31;101869.44;5033760;28;20483;-69
2022/01/06 08:27:36;;;;;;;14.25;3.30;;;;;;;3.03;81.64;101875.53;5015744;28;20037;-69
2022/01/06 08:30:01;;;;;;;12.27;3.70;;;;;;;3.17;81.70;101874.59;5033711;28;20501;-69
2022/01/06 08:32:27;;;;;;;11.82;3.10;;;;;;;3.25;81.48;101866.41;5015973;28;20355;-69
2022/01/06 08:34:52;;;;;;;16.00;3.17;;;;;;;3.38;81.03;101874.91;5033604;28;20053;-69
2022/01/06 08:37:18;;;;;;;13.50;3.10;;;;;;;3.46;80.57;101877.13;5033682;28;20107;-68
2022/01/06 08:39:44;;;;;;;21.23;4.35;;;;;;;3.65;81.39;101873.84;5033534;28;20465;-68
2022/01/06 08:42:11;;;;;;;15.98;3.47;;;;;;;3.79;79.72;101878.94;5033410;28;20025;-68
2022/01/06 08:44:39;;;;;;;22.13;3.63;;;;;;;3.89;79.69;101869.03;5033344;28;20026;-68
2022/01/06 08:47:05;;;;;;;13.60;3.40;;;;;;;4.00;78.82;101885.31;5033424;28;20430;-68
2022/01/06 08:49:31;;;;;;;18.42;3.40;;;;;;;4.15;79.15;101883.50;5033244;28;20029;-69
2022/01/06 08:51:56;;;;;;;14.60;3.60;;;;;;;4.37;79.22;101885.56;5033089;28;20029;-68
2022/01/06 08:54:22;;;;;;;16.02;3.90;;;;;;;4.41;77.98;101884.00;5033229;28;20076;-68
2022/01/06 08:56:47;;;;;;;14.02;3.88;;;;;;;4.60;78.44;101886.75;5032937;28;20045;-68
2022/01/06 08:59:12;;;;;;;14.05;3.80;;;;;;;4.78;77.59;101882.44;5033199;28;20108;-67
2022/01/06 09:01:38;;;;;;;16.60;4.47;;;;;;;4.98;78.26;101886.09;5033096;28;20128;-68
2022/01/06 09:04:04;;;;;;;16.92;4.40;;;;;;;5.13;76.57;101880.69;5033236;28;20100;-68
2022/01/06 09:06:29;;;;;;;15.35;4.85;;;;;;;5.33;77.10;101892.16;5032831;28;20037;-69
2022/01/06 09:08:55;;;;;;;16.35;4.35;;;;;;;5.50;76.12;101896.50;5033210;28;20104;-68
2022/01/06 09:11:20;;;;;;;11.95;3.85;;;;;;;5.70;75.79;101896.56;5032705;28;20076;-67
2022/01/06 09:13:45;;;;;;;11.13;4.15;;;;;;;5.82;75.26;101902.34;5032998;28;20033;-67
2022/01/06 09:16:11;;;;;;;18.55;4.63;;;;;;;6.01;74.52;101904.16;5032724;28;20025;-68
2022/01/06 09:18:38;;;;;;;15.32;4.38;;;;;;;6.19;74.16;101902.38;5032964;28;20022;-68
2022/01/06 09:21:04;;;;;;;14.85;3.95;;;;;;;6.34;73.35;101911.75;5032188;28;20030;-69
2022/01/06 09:23:30;;;;;;;14.73;4.57;;;;;;;6.55;73.31;101911.81;5032645;28;20036;-69
2022/01/06 09:25:55;;;;;;;16.92;4.55;;;;;;;6.74;72.33;101912.69;5032865;28;20034;-68
2022/01/06 09:28:21;;;;;;;14.05;4.78;;;;;;;6.92;71.88;101909.97;5032679;28;20033;-69
2022/01/06 09:30:46;;;;;;;14.18;4.38;;;;;;;7.15;71.88;101916.22;5032703;28;20379;-71
2022/01/06 09:33:13;;;;;;;14.02;4.35;;;;;;;7.49;70.49;101922.81;5032638;28;20021;-70
2022/01/06 09:35:39;;;;;;;14.65;4.65;;;;;;;7.86;69.33;101921.66;5032534;28;20033;-70
2022/01/06 09:38:04;;;;;;;15.35;4.90;;;;;;;8.27;68.80;101918.00;5032655;28;20029;-70
2022/01/06 09:40:30;;;;;;;17.35;4.65;;;;;;;8.63;66.86;101917.56;5014933;28;20529;-70
2022/01/06 09:42:55;;;;;;;11.38;4.38;;;;;;;8.92;66.90;101927.41;5032367;28;20033;-69
2022/01/06 09:45:25;;;;;;;17.83;4.47;;;;;;;9.21;66.19;101923.13;5032545;28;20018;-68
2022/01/06 09:47:53;;;;;;;17.48;4.50;;;;;;;9.48;64.94;101917.84;5032421;28;20025;-68
2022/01/06 09:50:19;;;;;;;14.70;4.35;;;;;;;9.78;64.09;101928.47;5032369;28;20025;-68
2022/01/06 09:52:45;;;;;;;14.73;4.65;;;;;;;9.87;62.74;101934.91;5032457;28;20029;-69
2022/01/06 09:55:11;;;;;;;13.73;4.60;;;;;;;9.91;62.82;101927.13;5029894;28;20029;-69
2022/01/06 09:57:37;;;;;;;13.80;4.50;;;;;;;10.01;63.11;101928.28;5030565;28;20049;-69
2022/01/06 10:00:08;;;;;;;15.38;5.10;;;;;;;10.01;62.96;101933.56;5032247;28;20024;-69
2022/01/06 10:02:36;;;;;;;15.57;4.65;;;;;;;9.98;62.58;101930.88;5032001;28;20061;-69
2022/01/06 10:05:03;;;;;;;18.35;5.15;;;;;;;10.03;63.33;101930.16;5032196;28;20491;-69
2022/01/06 10:07:35;;;;;;;15.23;5.30;;;;;;;9.97;63.52;101927.28;5032450;28;20048;-69
2022/01/06 10:10:06;;;;;;;22.13;4.85;;;;;;;9.78;63.28;101923.22;5032217;28;20018;-69
2022/01/06 10:12:32;;;;;;;14.43;4.57;;;;;;;9.64;61.85;101911.34;5032323;28;20133;-69
2022/01/06 10:14:59;;;;;;;17.60;4.95;;;;;;;9.40;62.06;101924.63;5032187;28;20389;-68
2022/01/06 10:17:33;;;;;;;16.55;5.13;;;;;;;9.53;64.36;101925.91;5030806;28;20036;-68
2022/01/06 10:20:14;;;;;;;16.52;4.70;;;;;;;9.67;65.40;101928.97;5031974;28;20025;-70
2022/01/06 10:22:51;;;;;;;17.40;4.75;;;;;;;9.95;64.82;101923.72;5032050;28;20028;-70
2022/01/06 10:25:19;;;;;;;20.50;4.63;;;;;;;10.08;63.34;101921.47;5031932;28;20038;-69
2022/01/06 10:27:46;;;;;;;12.68;4.40;;;;;;;10.24;63.65;101922.00;5030572;28;20041;-68
2022/01/06 10:30:12;;;;;;;13.93;4.65;;;;;;;10.30;62.47;101910.72;5032022;28;20482;-69
2022/01/06 10:32:39;;;;;;;16.40;4.95;;;;;;;10.37;62.46;101917.97;5032347;28;20048;-67
2022/01/06 10:35:07;;;;;;;17.77;4.90;;;;;;;10.28;62.27;101901.84;5035762;28;20096;-70
2022/01/06 10:37:38;;;;;;;13.55;4.45;;;;;;;10.11;61.69;101911.00;5035310;28;20352;-67
2022/01/06 10:40:25;;;;;;;14.03;5.00;;;;;;;10.09;63.51;101899.47;5035687;28;20478;-68
2022/01/06 10:42:57;;;;;;;17.45;5.10;;;;;;;10.13;61.89;101911.94;5035518;28;20477;-67
2022/01/06 10:45:26;;;;;;;15.07;5.13;;;;;;;10.17;62.12;101912.06;5035610;28;20033;-69
2022/01/06 10:47:58;;;;;;;13.98;4.60;;;;;;;9.96;62.67;101906.13;5035220;28;20382;-68
2022/01/06 10:50:25;;;;;;;15.65;4.55;;;;;;;9.74;61.48;101913.41;5035298;28;20487;-67
2022/01/06 10:53:00;;;;;;;18.95;4.70;;;;;;;9.73;62.50;101913.38;5035444;28;20057;-67
2022/01/06 10:55:29;;;;;;;13.93;4.20;;;;;;;9.62;63.20;101910.38;5035337;28;20044;-67
2022/01/06 10:58:16;;;;;;;16.10;4.50;;;;;;;9.39;64.45;101911.41;5054875;28;20041;-67
2022/01/06 11:00:44;;;;;;;13.48;3.90;;;;;;;9.26;63.61;101908.34;5054940;28;20029;-67
2022/01/06 11:03:20;;;;;;;15.45;4.00;;;;;;;9.26;65.44;101907.44;5055081;28;20116;-66
2022/01/06 11:05:50;;;;;;;18.10;4.00;;;;;;;9.40;64.99;101902.63;5055006;28;20478;-67
2022/01/06 11:08:18;;;;;;;14.18;3.88;;;;;;;9.59;65.12;101906.72;5055378;28;20029;-66
2022/01/06 11:11:02;;;;;;;18.05;3.63;;;;;;;9.58;64.11;101897.03;5055061;28;20021;-67
2022/01/06 11:13:31;;;;;;;18.80;4.45;;;;;;;9.86;65.00;101902.34;5054883;28;20048;-67
2022/01/06 11:15:58;;;;;;;14.35;4.10;;;;;;;10.04;63.65;101900.25;5054863;28;20028;-66
2022/01/06 11:18:24;;;;;;;13.75;4.28;;;;;;;10.25;62.76;101893.84;5054965;28;20021;-66
2022/01/06 11:20:51;;;;;;;14.27;4.10;;;;;;;10.29;61.79;101890.44;5036819;28;20040;-66
2022/01/06 11:23:24;;;;;;;11.88;3.65;;;;;;;10.57;62.90;101900.00;5054866;28;20028;-66
2022/01/06 11:26:22;;;;;;;15.27;4.00;;;;;;;10.83;64.34;101894.53;5054670;28;20029;-66
2022/01/06 11:28:56;;;;;;;17.65;4.10;;;;;;;11.03;61.62;101893.31;4954710;29;20047;-66
2022/01/06 11:31:24;;;;;;;13.52;3.67;;;;;;;11.16;60.36;101891.88;4954384;28;20079;-66